Arvin, California
Current Conditions -  °F | °C
As of 7:28 PM on Saturday 24 Jan 2015 (Local Time) from KBFL Reporting Station
Moderate Fog Moderate Fog  
Wind Chill: 37°   Ceiling: 400
Heat Index: 40°   Visibility: 0.25mi
Dew Point: 38°   Wind: 5mph
Humidity: 93%   Direction: 280°W
Pressure: 30.18"   Gusts: NA
Location:  35.21°N, 118.82°W
Report Text: KBFL 250328Z 28004KT 1/4SM R30R/0800V1400FT FG VV004 04/03 A3018 RMK AO2 TWR VIS 1/4 T00440033
Loading
Personal Weather Stations






























Interactive Weather Map New forecast layout! Learn more

10-Day Weather Forecast

Advertisements
Track Severe Weather on mobile